Stabroek, Belgium
Current Conditions -  °F | °C
As of 3:32 PM on Friday 24 Oct 2014 (Local Time) from EHWO Reporting Station
Heavy Rain Heavy Rain  
Wind Chill: 55°   Ceiling: 1200
Heat Index: 55°   Visibility: 2.8mi
Dew Point: 54°   Wind: 7mph
Humidity: 94%   Direction: 190°S
Pressure: 30"   Gusts: NA
Location:  51.33°N, 4.37°E
Report Text: EHWO 241332Z AUTO 19006KT 4600 +DZRA FEW008 BKN012 OVC014 13/12 Q1016 GRN 19008KT 6000 -RADZ FEW014 BKN018 BKN045 TEMPO 3500 RADZ FEW012 BKN014 BKN045
Loading
Personal Weather Stations






























Interactive Weather Map
Tropical Storm Tracking
New forecast layout! Learn more

10-Day Weather Forecast

Advertisements
Track Severe Weather on mobile